CheckWX is a tool to help pilots better visualize weather data.  It is not intended as a substitute for an official pre-flight weather briefing.

13:05:45 UTC

KTQH METAR
Tahlequah Municipal Airport
Tahlequah, Oklahoma, USA
Current

31 mins ago

KTQH 311235Z AUTO 02005KT 10SM BKN070 OVC080 08/08 A3005 RMK AO2
Observed
Mar-31 @ 12:35 UTC
Wind
  • 020° at 5 KTS
Visibility
10 SM
Flight Rules
VFR
Cloud Levels
  • Broken at 7,000' AGL
  • Overcast at 8,000' AGL
Temperature
C / 46°F
Dewpoint
C / 46°F
Humidity
100%
Altimeter
30.05" Hg
Pressure
1017.62 hPa
Previous

51 mins ago

KTQH 311215Z AUTO 03004KT 10SM SCT060 OVC070 08/07 A3005 RMK AO2
Observed
Mar-31 @ 12:15 UTC
Wind
  • 030° at 4 KTS
Visibility
10 SM
Flight Rules
VFR
Cloud Levels
  • Scattered at 6,000' AGL
  • Overcast at 7,000' AGL
Temperature
C / 46°F
Dewpoint
C / 45°F
Humidity
93%
Altimeter
30.05" Hg
Pressure
1017.62 hPa
Previous

1 hour ago

KTQH 311155Z AUTO 02004KT 10SM OVC050 08/08 A3005 RMK AO2
Observed
Mar-31 @ 11:55 UTC
Wind
  • 020° at 4 KTS
Visibility
10 SM
Flight Rules
VFR
Cloud Levels
  • Overcast at 5,000' AGL
Temperature
C / 46°F
Dewpoint
C / 46°F
Humidity
100%
Altimeter
30.05" Hg
Pressure
1017.62 hPa